Time;durP1;ratioP1;P1;durP2;ratioP2;P2;SDS_P1;SDS_P2;PMS_P1;PMS_P2;Temp;Humidity;BMP_temperature;BMP_pressure;BME280_temperature;BME280_humidity;BME280_pressure;Samples;Min_cycle;Max_cycle;Signal;HPM_P1;HPM_P2
2022/08/26 00:00:00;;;;;;;;;;;;;;;20.01;100.00;-25630.34;5034319;28;20172;-76
2022/08/26 00:02:25;;;;;;;;;;;;;;;20.04;100.00;-25631.06;5050334;28;20003;-76
2022/08/26 00:04:51;;;;;;;;;;;;;;;19.97;100.00;-25629.22;5050828;28;20377;-75
2022/08/26 00:07:16;;;;;;;;;;;;;;;19.96;100.00;-25628.91;5050643;28;19947;-75
2022/08/26 00:09:42;;;;;;;;;;;;;;;19.97;100.00;-25629.06;5050336;28;20015;-75
2022/08/26 00:12:08;;;;;;;;;;;;;;;19.95;100.00;-25628.47;5049952;28;20365;-78
2022/08/26 00:14:33;;;;;;;;;;;;;;;19.94;100.00;-25628.34;5050178;28;20400;-75
2022/08/26 00:16:58;;;;;;;;;;;;;;;19.95;100.00;-25628.47;5049991;28;19913;-77
2022/08/26 00:19:24;;;;;;;;;;;;;;;19.93;100.00;-25627.91;5050813;28;20388;-74
2022/08/26 00:21:49;;;;;;;;;;;;;;;19.93;100.00;-25628.06;5049941;28;19923;-76
2022/08/26 00:24:15;;;;;;;;;;;;;;;19.89;100.00;-25627.03;5050088;28;19970;-75
2022/08/26 00:26:41;;;;;;;;;;;;;;;19.91;100.00;-25627.63;5050863;28;19920;-75
2022/08/26 00:29:06;;;;;;;;;;;;;;;19.92;100.00;-25627.75;5051023;28;19917;-76
2022/08/26 00:31:31;;;;;;;;;;;;;;;19.89;100.00;-25627.03;5049766;28;19919;-74
2022/08/26 00:33:57;;;;;;;;;;;;;;;19.88;100.00;-25626.59;5050181;28;20011;-75
2022/08/26 00:36:24;;;;;;;;;;;;;;;19.83;100.00;-25625.16;5050026;28;19920;-75
2022/08/26 00:38:49;;;;;;;;;;;;;;;19.82;100.00;-25625.03;5050207;28;19924;-75
2022/08/26 00:41:14;;;;;;;;;;;;;;;19.82;100.00;-25624.88;5049908;28;19920;-77
2022/08/26 00:43:39;;;;;;;;;;;;;;;19.77;100.00;-25623.56;5049737;28;19924;-76
2022/08/26 00:46:05;;;;;;;;;;;;;;;19.76;100.00;-25623.28;5049514;28;19916;-76
2022/08/26 00:48:31;;;;;;;;;;;;;;;19.77;100.00;-25623.44;5050953;28;19917;-80
2022/08/26 00:50:59;;;;;;;;;;;;;;;19.81;100.00;-25624.59;5050287;28;20019;-80
2022/08/26 00:53:26;;;;;;;;;;;;;;;19.73;100.00;-25622.41;5050171;28;19923;-74
2022/08/26 00:56:30;;;;;;;;;;;;;;;19.78;100.00;-25623.72;5050182;28;19931;-76
2022/08/26 00:58:57;;;;;;;;;;;;;;;19.74;100.00;-25622.84;5047599;28;20408;-75
2022/08/26 01:01:24;;;;;;;;;;;;;;;19.72;100.00;-25622.28;5032152;28;20166;-76
2022/08/26 01:03:50;;;;;;;;;;;;;;;19.77;100.00;-25623.44;5055092;28;19940;-76
2022/08/26 01:06:17;;;;;;;;;;;;;;;19.72;100.00;-25622.28;5049657;28;20382;-79
2022/08/26 01:08:43;;;;;;;;;;;;;;;19.74;100.00;-25622.84;5050817;28;20288;-78
2022/08/26 01:11:10;;;;;;;;;;;;;;;19.75;100.00;-25623.00;5049997;28;19939;-76
2022/08/26 01:13:36;;;;;;;;;;;;;;;19.71;100.00;-25621.97;5049938;28;19917;-79
2022/08/26 01:16:02;;;;;;;;;;;;;;;19.69;100.00;-25621.41;5050201;28;20253;-78
2022/08/26 01:18:28;;;;;;;;;;;;;;;19.67;100.00;-25620.84;5049491;28;19924;-78
2022/08/26 01:20:54;;;;;;;;;;;;;;;19.70;100.00;-25621.56;5049804;28;19917;-75
2022/08/26 01:23:19;;;;;;;;;;;;;;;19.69;100.00;-25621.41;5049991;28;19972;-75
2022/08/26 01:25:48;;;;;;;;;;;;;;;19.64;100.00;-25619.97;5051677;28;20365;-75
2022/08/26 01:28:15;;;;;;;;;;;;;;;19.60;100.00;-25618.66;5053032;28;20375;-75
2022/08/26 01:30:41;;;;;;;;;;;;;;;19.55;100.00;-25617.50;5053846;28;19916;-74
2022/08/26 01:33:09;;;;;;;;;;;;;;;19.57;100.00;-25617.81;5052844;28;19927;-76
2022/08/26 01:35:36;;;;;;;;;;;;;;;19.52;100.00;-25616.66;5053529;28;20007;-76
2022/08/26 01:38:02;;;;;;;;;;;;;;;19.49;100.00;-25615.63;5053362;28;20403;-75
2022/08/26 01:40:31;;;;;;;;;;;;;;;19.48;100.00;-25615.34;5053455;28;20042;-75
2022/08/26 01:42:57;;;;;;;;;;;;;;;19.47;100.00;-25615.06;5052855;28;19917;-75
2022/08/26 01:45:24;;;;;;;;;;;;;;;19.46;100.00;-25614.78;5053700;28;19916;-75
2022/08/26 01:47:52;;;;;;;;;;;;;;;19.46;100.00;-25614.91;5053330;28;19917;-76
2022/08/26 01:50:19;;;;;;;;;;;;;;;19.46;100.00;-25614.91;5053382;28;20273;-77
2022/08/26 01:52:45;;;;;;;;;;;;;;;19.45;100.00;-25614.63;5053556;28;19916;-76
2022/08/26 01:55:14;;;;;;;;;;;;;;;19.42;100.00;-25613.63;5052963;28;20369;-75
2022/08/26 01:57:40;;;;;;;;;;;;;;;19.42;100.00;-25613.63;5053766;28;20015;-75
2022/08/26 02:00:07;;;;;;;;;;;;;;;19.43;100.00;-25613.91;5053177;28;19959;-80
2022/08/26 02:02:32;;;;;;;;;;;;;;;19.45;100.00;-25614.47;5053539;28;20010;-77
2022/08/26 02:05:00;;;;;;;;;;;;;;;19.44;100.00;-25614.19;5053649;28;20365;-79
2022/08/26 02:07:27;;;;;;;;;;;;;;;19.45;100.00;-25614.47;5053869;28;20369;-80
2022/08/26 02:09:53;;;;;;;;;;;;;;;19.53;100.00;-25616.78;5053791;28;19967;-80
2022/08/26 02:12:18;;;;;;;;;;;;;;;19.52;100.00;-25616.66;5051407;28;20395;-78
2022/08/26 02:14:48;;;;;;;;;;;;;;;19.47;100.00;-25615.19;5054111;28;19961;-79
2022/08/26 02:17:15;;;;;;;;;;;;;;;19.45;100.00;-25614.47;5053274;28;20440;-77
2022/08/26 02:19:44;;;;;;;;;;;;;;;19.43;100.00;-25614.03;5052643;28;20030;-75
2022/08/26 02:22:12;;;;;;;;;;;;;;;19.45;100.00;-25614.63;5053077;28;19967;-77
2022/08/26 02:24:45;;;;;;;;;;;;;;;19.45;100.00;-25614.47;5052461;28;19917;-76
2022/08/26 02:27:11;;;;;;;;;;;;;;;19.45;100.00;-25614.63;5052172;28;20423;-76
2022/08/26 02:29:39;;;;;;;;;;;;;;;19.40;100.00;-25613.19;5053065;28;20381;-79
2022/08/26 02:32:08;;;;;;;;;;;;;;;19.36;100.00;-25612.03;5053349;28;19921;-76
2022/08/26 02:34:33;;;;;;;;;;;;;;;19.35;100.00;-25611.88;5052335;28;19967;-75
2022/08/26 02:37:00;;;;;;;;;;;;;;;19.38;100.00;-25612.75;5052326;28;19952;-76
2022/08/26 02:39:25;;;;;;;;;;;;;;;19.36;100.00;-25612.16;5053637;28;19962;-78
2022/08/26 02:41:51;;;;;;;;;;;;;;;19.37;100.00;-25612.47;5052185;28;20015;-76
2022/08/26 02:44:16;;;;;;;;;;;;;;;19.36;100.00;-25612.03;5051983;28;19916;-76
2022/08/26 02:46:42;;;;;;;;;;;;;;;19.30;100.00;-25610.44;5052198;28;19952;-77
2022/08/26 02:49:07;;;;;;;;;;;;;;;19.26;100.00;-25609.13;5053052;28;20000;-76
2022/08/26 02:51:33;;;;;;;;;;;;;;;19.20;100.00;-25607.56;5052333;28;19917;-76
2022/08/26 02:53:58;;;;;;;;;;;;;;;19.15;100.00;-25606.09;5035639;28;20024;-76
2022/08/26 02:56:23;;;;;;;;;;;;;;;19.16;100.00;-25606.41;5051979;28;19917;-77
2022/08/26 02:58:49;;;;;;;;;;;;;;;19.10;100.00;-25604.66;5051550;28;20027;-77
2022/08/26 03:01:19;;;;;;;;;;;;;;;19.10;100.00;-25604.81;5052002;28;20399;-76
2022/08/26 03:03:45;;;;;;;;;;;;;;;19.12;100.00;-25605.25;5052318;28;19917;-77
2022/08/26 03:06:10;;;;;;;;;;;;;;;19.17;100.00;-25606.69;5051728;28;19939;-75
2022/08/26 03:08:35;;;;;;;;;;;;;;;19.17;100.00;-25606.69;5051636;28;20207;-76
2022/08/26 03:11:01;;;;;;;;;;;;;;;19.19;100.00;-25607.41;5051924;28;19921;-76
2022/08/26 03:13:26;;;;;;;;;;;;;;;19.20;100.00;-25607.56;5051445;28;19917;-75
2022/08/26 03:15:51;;;;;;;;;;;;;;;19.17;100.00;-25606.69;5051508;28;19916;-76
2022/08/26 03:18:16;;;;;;;;;;;;;;;19.16;100.00;-25606.41;5051959;28;19917;-77
2022/08/26 03:20:42;;;;;;;;;;;;;;;19.15;100.00;-25606.09;5034817;28;19925;-76
2022/08/26 03:23:07;;;;;;;;;;;;;;;19.21;100.00;-25607.69;5051168;28;19964;-77
2022/08/26 03:25:32;;;;;;;;;;;;;;;19.10;100.00;-25604.81;5051970;28;19916;-76
2022/08/26 03:27:58;;;;;;;;;;;;;;;19.06;100.00;-25603.50;5051373;28;19917;-76
2022/08/26 03:30:38;;;;;;;;;;;;;;;19.00;100.00;-25602.06;5051076;28;20016;-76
2022/08/26 03:33:05;;;;;;;;;;;;;;;18.99;100.00;-25601.78;5051435;28;19974;-78
2022/08/26 03:35:31;;;;;;;;;;;;;;;18.99;100.00;-25601.78;5051249;28;19924;-76
2022/08/26 03:37:58;;;;;;;;;;;;;;;18.93;100.00;-25600.03;5050701;28;19924;-77
2022/08/26 03:40:23;;;;;;;;;;;;;;;18.92;100.00;-25599.59;5051605;28;20133;-76
2022/08/26 03:42:49;;;;;;;;;;;;;;;18.89;100.00;-25598.88;5051180;28;20384;-75
2022/08/26 03:45:15;;;;;;;;;;;;;;;18.94;100.00;-25600.31;5052277;28;20016;-77
2022/08/26 03:47:40;;;;;;;;;;;;;;;18.92;100.00;-25599.59;5050352;28;19917;-76
2022/08/26 03:50:09;;;;;;;;;;;;;;;18.92;100.00;-25599.59;5050832;28;19916;-76
2022/08/26 03:52:34;;;;;;;;;;;;;;;18.92;100.00;-25599.75;5050906;28;20032;-75
2022/08/26 03:54:59;;;;;;;;;;;;;;;18.92;100.00;-25599.75;5051063;28;20385;-77
2022/08/26 03:57:25;;;;;;;;;;;;;;;18.89;100.00;-25598.75;5051306;28;19940;-75
2022/08/26 03:59:50;;;;;;;;;;;;;;;18.88;100.00;-25598.59;5050345;28;19920;-75
2022/08/26 04:02:15;;;;;;;;;;;;;;;18.93;100.00;-25600.03;5034180;28;19921;-76
2022/08/26 04:04:41;;;;;;;;;;;;;;;18.93;100.00;-25599.91;5050799;28;20019;-76
2022/08/26 04:07:06;;;;;;;;;;;;;;;18.89;100.00;-25598.88;5051150;28;19924;-79
2022/08/26 04:09:32;;;;;;;;;;;;;;;18.88;100.00;-25598.44;5050723;28;19943;-78
2022/08/26 04:11:58;;;;;;;;;;;;;;;18.87;100.00;-25598.16;5050433;28;19917;-76
2022/08/26 04:14:24;;;;;;;;;;;;;;;18.86;100.00;-25598.00;5050660;28;19924;-76
2022/08/26 04:16:50;;;;;;;;;;;;;;;18.86;100.00;-25598.00;5050846;28;20377;-74
2022/08/26 04:19:16;;;;;;;;;;;;;;;18.87;100.00;-25598.31;5049688;28;19917;-76
2022/08/26 04:21:42;;;;;;;;;;;;;;;18.85;100.00;-25597.72;5050891;28;19928;-75
2022/08/26 04:24:08;;;;;;;;;;;;;;;18.79;100.00;-25596.13;5050102;28;19917;-74
2022/08/26 04:26:36;;;;;;;;;;;;;;;18.81;100.00;-25596.72;5050068;28;19917;-75
2022/08/26 04:29:02;;;;;;;;;;;;;;;18.88;100.00;-25598.59;5050379;28;20280;-76
2022/08/26 04:31:27;;;;;;;;;;;;;;;18.91;100.00;-25599.47;5049981;28;20004;-75
2022/08/26 04:33:55;;;;;;;;;;;;;;;19.00;100.00;-25602.06;5050001;28;20015;-75
2022/08/26 04:36:22;;;;;;;;;;;;;;;19.14;100.00;-25605.81;5049806;28;20424;-75
2022/08/26 04:38:49;;;;;;;;;;;;;;;19.18;100.00;-25606.97;5051380;28;20281;-79
2022/08/26 04:41:15;;;;;;;;;;;;;;;19.18;100.00;-25607.13;5051509;28;20015;-79
2022/08/26 04:43:40;;;;;;;;;;;;;;;19.23;100.00;-25608.41;5051307;28;19917;-77
2022/08/26 04:46:06;;;;;;;;;;;;;;;19.23;100.00;-25608.41;5050552;28;20365;-79
2022/08/26 04:48:32;;;;;;;;;;;;;;;19.24;100.00;-25608.56;5050515;28;19963;-80
2022/08/26 04:50:58;;;;;;;;;;;;;;;19.24;100.00;-25608.56;5050573;28;19966;-78
2022/08/26 04:53:24;;;;;;;;;;;;;;;19.27;100.00;-25609.44;5050497;28;19917;-79
2022/08/26 04:55:49;;;;;;;;;;;;;;;19.28;100.00;-25609.72;5050273;28;19959;-80
2022/08/26 04:58:16;;;;;;;;;;;;;;;19.25;100.00;-25609.00;5050298;28;19936;-78
2022/08/26 05:00:42;;;;;;;;;;;;;;;19.26;100.00;-25609.13;5050323;28;19999;-80
2022/08/26 05:03:07;;;;;;;;;;;;;;;19.25;100.00;-25608.84;5050002;28;19923;-80
2022/08/26 05:05:32;;;;;;;;;;;;;;;19.31;100.00;-25610.59;5050447;28;19920;-80
2022/08/26 05:07:58;;;;;;;;;;;;;;;19.37;100.00;-25612.31;5050102;28;19924;-81
2022/08/26 05:10:23;;;;;;;;;;;;;;;19.41;100.00;-25613.47;5050719;28;20118;-79
2022/08/26 05:12:49;;;;;;;;;;;;;;;19.39;100.00;-25612.91;5049373;28;19940;-77
2022/08/26 05:15:14;;;;;;;;;;;;;;;19.44;100.00;-25614.19;5049201;28;19920;-76
2022/08/26 05:17:39;;;;;;;;;;;;;;;19.41;100.00;-25613.47;5049873;28;19962;-76
2022/08/26 05:20:05;;;;;;;;;;;;;;;19.46;100.00;-25614.78;5049139;28;19970;-75
2022/08/26 05:22:30;;;;;;;;;;;;;;;19.48;100.00;-25615.50;5049080;28;20391;-77
2022/08/26 05:24:55;;;;;;;;;;;;;;;19.48;100.00;-25615.50;5049600;28;19917;-77
2022/08/26 05:27:21;;;;;;;;;;;;;;;19.46;100.00;-25614.91;5049048;28;19972;-75
2022/08/26 05:29:47;;;;;;;;;;;;;;;19.46;100.00;-25614.78;5049239;28;20292;-78
2022/08/26 05:32:12;;;;;;;;;;;;;;;19.45;100.00;-25614.47;5049257;28;19932;-76
2022/08/26 05:34:37;;;;;;;;;;;;;;;19.38;100.00;-25612.75;5049846;28;19973;-79
2022/08/26 05:37:04;;;;;;;;;;;;;;;19.45;100.00;-25614.63;5032510;28;19982;-77
2022/08/26 05:39:30;;;;;;;;;;;;;;;19.47;100.00;-25615.06;5049791;28;20344;-76
2022/08/26 05:41:56;;;;;;;;;;;;;;;19.50;100.00;-25616.06;5049643;28;20027;-78
2022/08/26 05:44:21;;;;;;;;;;;;;;;19.53;100.00;-25616.94;5049238;28;20365;-77
2022/08/26 05:46:46;;;;;;;;;;;;;;;19.53;100.00;-25616.94;5049544;28;19994;-76
2022/08/26 05:49:12;;;;;;;;;;;;;;;19.57;100.00;-25617.94;5049381;28;20125;-76
2022/08/26 05:51:37;;;;;;;;;;;;;;;19.57;100.00;-25617.94;5049158;28;19917;-77
2022/08/26 05:54:03;;;;;;;;;;;;;;;19.57;100.00;-25617.81;5049244;28;19947;-79
2022/08/26 05:56:29;;;;;;;;;;;;;;;19.60;100.00;-25618.81;5049650;28;20040;-80
2022/08/26 05:58:55;;;;;;;;;;;;;;;19.66;100.00;-25620.41;5048803;28;19950;-76
2022/08/26 06:01:22;;;;;;;;;;;;;;;19.65;100.00;-25620.09;5049808;28;19917;-75
2022/08/26 06:03:50;;;;;;;;;;;;;;;19.59;100.00;-25618.53;5049657;28;19923;-80
2022/08/26 06:06:26;;;;;;;;;;;;;;;19.54;100.00;-25617.06;5049852;28;19917;-79
2022/08/26 06:08:51;;;;;;;;;;;;;;;19.52;100.00;-25616.50;5049387;28;20361;-76
2022/08/26 06:11:18;;;;;;;;;;;;;;;19.48;100.00;-25615.50;5052231;28;19971;-76
2022/08/26 06:13:43;;;;;;;;;;;;;;;19.52;100.00;-25616.50;5053717;28;19917;-75
2022/08/26 06:16:10;;;;;;;;;;;;;;;19.53;100.00;-25616.94;5053444;28;20015;-79
2022/08/26 06:18:37;;;;;;;;;;;;;;;19.58;100.00;-25618.09;5053285;28;20130;-80
2022/08/26 06:21:12;;;;;;;;;;;;;;;19.63;100.00;-25619.69;5053080;28;20392;-79
2022/08/26 06:26:21;;;;;;;;;;;;;;;19.67;100.00;-25620.84;5054144;28;19983;-78
2022/08/26 06:28:46;;;;;;;;;;;;;;;19.76;100.00;-25623.13;5054351;28;19917;-81
2022/08/26 06:31:12;;;;;;;;;;;;;;;19.71;100.00;-25621.84;5053092;28;19912;-79
2022/08/26 06:33:37;;;;;;;;;;;;;;;19.61;100.00;-25618.94;5053195;28;20393;-80
2022/08/26 06:36:03;;;;;;;;;;;;;;;19.65;100.00;-25620.25;5052999;28;19975;-77
2022/08/26 06:38:28;;;;;;;;;;;;;;;19.62;100.00;-25619.25;5052436;28;20267;-77
2022/08/26 06:40:53;;;;;;;;;;;;;;;19.64;100.00;-25619.97;5051687;28;19942;-76
2022/08/26 06:43:20;;;;;;;;;;;;;;;19.70;100.00;-25621.69;5052372;28;20030;-76
2022/08/26 06:45:46;;;;;;;;;;;;;;;19.72;100.00;-25622.28;5052473;28;20015;-76
2022/08/26 06:48:12;;;;;;;;;;;;;;;19.69;100.00;-25621.25;5052647;28;20264;-77
2022/08/26 06:50:38;;;;;;;;;;;;;;;19.64;100.00;-25619.97;5052587;28;19970;-79
2022/08/26 06:53:03;;;;;;;;;;;;;;;19.66;100.00;-25620.53;5052226;28;19917;-75
2022/08/26 06:55:28;;;;;;;;;;;;;;;19.72;100.00;-25622.13;5052702;28;19917;-78
2022/08/26 06:57:55;;;;;;;;;;;;;;;19.69;100.00;-25621.41;5052073;28;19921;-79
2022/08/26 07:00:20;;;;;;;;;;;;;;;19.69;100.00;-25621.41;5052983;28;19994;-82
2022/08/26 07:02:47;;;;;;;;;;;;;;;19.75;100.00;-25623.00;5051952;28;20324;-76
2022/08/26 07:05:13;;;;;;;;;;;;;;;19.77;100.00;-25623.56;5035843;28;19921;-78
2022/08/26 07:07:38;;;;;;;;;;;;;;;19.88;100.00;-25626.59;5052205;28;19940;-77
2022/08/26 07:10:04;;;;;;;;;;;;;;;19.87;100.00;-25626.31;5052610;28;20301;-75
2022/08/26 07:12:29;;;;;;;;;;;;;;;19.86;100.00;-25626.19;5051687;28;19962;-77
2022/08/26 07:14:55;;;;;;;;;;;;;;;19.81;100.00;-25624.72;5051194;28;20012;-75
2022/08/26 07:17:20;;;;;;;;;;;;;;;19.57;100.00;-25617.94;5052456;28;20294;-76
2022/08/26 07:19:47;;;;;;;;;;;;;;;19.47;100.00;-25615.06;5051551;28;19939;-77
2022/08/26 07:22:14;;;;;;;;;;;;;;;19.43;100.00;-25613.91;5050627;28;20217;-77
2022/08/26 07:24:40;;;;;;;;;;;;;;;19.40;100.00;-25613.03;5052118;28;19917;-76
2022/08/26 07:27:07;;;;;;;;;;;;;;;19.43;100.00;-25614.03;5053168;28;19924;-81
2022/08/26 07:29:33;;;;;;;;;;;;;;;19.46;100.00;-25614.78;5051871;28;19917;-79
2022/08/26 07:31:58;;;;;;;;;;;;;;;19.58;100.00;-25618.22;5051808;28;19961;-78
2022/08/26 07:34:24;;;;;;;;;;;;;;;19.66;100.00;-25620.53;5052311;28;19920;-81
2022/08/26 07:36:50;;;;;;;;;;;;;;;19.71;100.00;-25621.84;5053041;28;19921;-80
2022/08/26 07:39:16;;;;;;;;;;;;;;;19.87;100.00;-25626.31;5051832;28;20423;-81
2022/08/26 07:41:41;;;;;;;;;;;;;;;19.87;100.00;-25626.31;5052728;28;19921;-82
2022/08/26 07:44:08;;;;;;;;;;;;;;;19.92;100.00;-25627.75;5051020;28;19917;-79
2022/08/26 07:46:33;;;;;;;;;;;;;;;19.96;100.00;-25628.91;5052170;28;19920;-80
2022/08/26 07:48:59;;;;;;;;;;;;;;;19.84;100.00;-25625.59;5052000;28;20334;-77
2022/08/26 07:51:25;;;;;;;;;;;;;;;19.73;100.00;-25622.41;5051747;28;20400;-81
2022/08/26 07:53:53;;;;;;;;;;;;;;;19.74;100.00;-25622.84;5052142;28;19924;-80
2022/08/26 07:56:18;;;;;;;;;;;;;;;19.70;100.00;-25621.69;5052522;28;19923;-79
2022/08/26 07:58:43;;;;;;;;;;;;;;;19.71;100.00;-25621.97;5051832;28;19916;-78
2022/08/26 08:01:09;;;;;;;;;;;;;;;19.78;100.00;-25623.72;5051574;28;20266;-81
2022/08/26 08:03:34;;;;;;;;;;;;;;;19.95;100.00;-25628.63;5052492;28;19920;-84
2022/08/26 08:06:00;;;;;;;;;;;;;;;20.11;100.00;-25633.09;5051574;28;19939;-82
2022/08/26 08:08:26;;;;;;;;;;;;;;;20.22;100.00;-25302.94;5052577;28;20015;-80
2022/08/26 08:10:51;;;;;;;;;;;;;;;20.25;100.00;-21324.66;5051880;28;19955;-82
2022/08/26 08:13:16;;;;;;;;;;;;;;;20.36;100.00;-20663.38;5052704;28;19916;-82
2022/08/26 08:15:41;;;;;;;;;;;;;;;20.34;100.00;-19003.31;5051603;28;19921;-80
2022/08/26 08:18:07;;;;;;;;;;;;;;;20.28;100.00;-18338.22;5051523;28;19982;-81
2022/08/26 08:20:33;;;;;;;;;;;;;;;20.25;100.00;-19333.63;5052904;28;19955;-81
2022/08/26 08:23:00;;;;;;;;;;;;;;;20.26;100.00;-19333.88;5051523;28;19963;-77
2022/08/26 08:25:25;;;;;;;;;;;;;;;20.18;100.00;-19332.31;5050372;28;19917;-78
2022/08/26 08:27:50;;;;;;;;;;;;;;;20.28;100.00;-19002.22;5051062;28;19950;-79
2022/08/26 08:30:17;;;;;;;;;;;;;;;20.33;100.00;-18671.09;5050242;28;20055;-76
2022/08/26 08:32:42;;;;;;;;;;;;;;;20.36;100.00;-17675.38;5050196;28;19925;-76
2022/08/26 08:35:09;;;;;;;;;;;;;;;20.33;100.00;-17342.69;5050621;28;19928;-79
2022/08/26 08:37:34;;;;;;;;;;;;;;;20.36;100.00;-16014.34;5051459;28;19916;-76
2022/08/26 08:40:00;;;;;;;;;;;;;;;20.50;100.00;-14686.47;5050031;28;19950;-80
2022/08/26 08:42:28;;;;;;;;;;;;;;;20.33;100.00;-11359.44;5050615;28;20014;-76
2022/08/26 08:44:55;;;;;;;;;;;;;;;20.24;100.00;-12024.13;5049962;28;19924;-78
2022/08/26 08:47:33;;;;;;;;;;;;;;;20.26;100.00;-13021.84;5050051;28;19923;-78
2022/08/26 08:50:01;;;;;;;;;;;;;;;20.18;100.00;-13686.03;5050314;28;19913;-81
2022/08/26 08:52:29;;;;;;;;;;;;;;;20.35;100.00;-15681.94;5049528;28;19917;-77
2022/08/26 08:54:55;;;;;;;;;;;;;;;20.56;100.00;-15019.66;5049478;28;19952;-77
2022/08/26 08:57:25;;;;;;;;;;;;;;;20.54;100.00;-13024.16;5050015;28;19960;-76
2022/08/26 08:59:57;;;;;;;;;;;;;;;20.35;100.00;-11692.22;5050145;28;20058;-75
2022/08/26 09:02:30;;;;;;;;;;;;;;;20.26;100.00;-12024.25;5049921;28;19921;-79
2022/08/26 09:05:03;;;;;;;;;;;;;;;20.16;100.00;-14018.19;5049143;28;19917;-76
2022/08/26 09:07:31;;;;;;;;;;;;;;;20.13;100.00;-15346.97;5049388;28;19924;-77
2022/08/26 09:09:58;;;;;;;;;;;;;;;20.01;100.00;-17005.97;5049480;28;19913;-80
2022/08/26 09:12:26;;;;;;;;;;;;;;;19.98;100.00;-18665.13;5049778;28;19917;-74
2022/08/26 09:14:56;;;;;;;;;;;;;;;19.99;100.00;-20655.88;5049116;28;19939;-76
2022/08/26 09:17:34;;;;;;;;;;;;;;;20.21;100.00;-20992.03;5049824;28;19921;-76
2022/08/26 09:20:09;;;;;;;;;;;;;;;20.34;100.00;-18339.16;5048776;28;20280;-77
2022/08/26 09:22:36;;;;;;;;;;;;;;;20.52;100.00;-15683.97;5049159;28;19917;-76
2022/08/26 09:25:03;;;;;;;;;;;;;;;20.67;100.00;-13025.22;5049263;28;19955;-76
2022/08/26 09:27:36;;;;;;;;;;;;;;;20.70;100.00;-10695.75;5049295;28;19924;-78
2022/08/26 09:30:02;;;;;;;;;;;;;;;20.77;100.00;-8697.84;5048930;28;20023;-75
2022/08/26 09:32:28;;;;;;;;;;;;;;;20.66;100.00;-7032.00;5049264;28;19964;-78
2022/08/26 09:35:20;;;;;;;;;;;;;;;20.55;100.00;-6032.53;5049787;28;19974;-76
2022/08/26 09:37:47;;;;;;;;;;;;;;;20.56;100.00;-6698.94;5049376;28;19952;-75
2022/08/26 09:40:28;;;;;;;;;;;;;;;20.76;100.00;-7698.34;5049387;28;19929;-77
2022/08/26 09:43:02;;;;;;;;;;;;;;;20.89;100.00;-8364.84;5049235;28;19913;-76
2022/08/26 09:45:28;;;;;;;;;;;;;;;21.00;100.00;-8364.94;5049680;28;19917;-78
2022/08/26 09:47:55;;;;;;;;;;;;;;;21.10;100.00;-8031.69;5053627;28;20397;-77
2022/08/26 09:50:27;;;;;;;;;;;;;;;21.15;100.00;-9031.72;5052875;28;20018;-75
2022/08/26 09:53:18;;;;;;;;;;;;;;;20.96;100.00;-10363.91;5053672;28;19921;-76
2022/08/26 09:55:46;;;;;;;;;;;;;;;21.02;100.00;-11030.31;5052559;28;20000;-76
2022/08/26 09:58:29;;;;;;;;;;;;;;;21.12;100.00;-11363.91;5053898;28;19970;-75
2022/08/26 10:00:56;;;;;;;;;;;;;;;21.23;100.00;-12030.72;5052685;28;19949;-76
2022/08/26 10:03:29;;;;;;;;;;;;;;;21.20;100.00;-10698.03;5052744;28;19962;-78
2022/08/26 10:05:59;;;;;;;;;;;;;;;21.02;100.00;-12695.19;5048694;28;19917;-75
2022/08/26 10:08:27;;;;;;;;;;;;;;;20.68;100.00;-14023.28;5053796;28;19964;-76
2022/08/26 10:10:55;;;;;;;;;;;;;;;20.49;100.00;-17677.38;5052759;28;19917;-74
2022/08/26 10:13:23;;;;;;;;;;;;;;;20.41;100.00;-20332.41;5053086;28;19917;-77
2022/08/26 10:15:51;;;;;;;;;;;;;;;20.20;100.00;-22318.63;5052872;28;19939;-78
2022/08/26 10:18:20;;;;;;;;;;;;;;;20.11;100.00;-21984.91;5052544;28;19962;-76
2022/08/26 10:20:53;;;;;;;;;;;;;;;20.12;100.00;-23311.41;5053034;28;19939;-77
2022/08/26 10:23:23;;;;;;;;;;;;;;;20.04;100.00;-24303.97;5052826;28;19924;-79
2022/08/26 10:26:27;;;;;;;;;;;;;;;20.04;100.00;-24635.19;5052383;28;19923;-74
2022/08/26 10:29:07;;;;;;;;;;;;;;;20.08;100.00;-24967.66;5051199;28;19928;-75
2022/08/26 10:32:02;;;;;;;;;;;;;;;20.07;100.00;-25298.69;5034371;28;19928;-77
2022/08/26 10:34:27;;;;;;;;;;;;;;;20.18;100.00;-25633.03;5044131;28;19920;-76
2022/08/26 10:37:00;;;;;;;;;;;;;;;20.20;100.00;-24308.09;5052534;28;19923;-75
2022/08/26 10:39:30;;;;;;;;;;;;;;;20.25;100.00;-23646.25;5052471;28;19916;-78
2022/08/26 10:41:57;;;;;;;;;;;;;;;20.33;100.00;-21326.31;5052504;28;19917;-78
2022/08/26 10:44:24;;;;;;;;;;;;;;;20.57;100.00;-20667.53;5052422;28;19943;-79
2022/08/26 10:46:52;;;;;;;;;;;;;;;20.73;100.00;-16684.03;5053778;28;19920;-75
2022/08/26 10:49:17;;;;;;;;;;;;;;;20.92;100.00;-14358.34;5052461;28;20407;-78
2022/08/26 10:51:43;;;;;;;;;;;;;;;20.92;100.00;-11029.81;5053749;28;19921;-80
2022/08/26 10:54:14;;;;;;;;;;;;;;;20.86;100.00;-10030.47;5053000;28;19939;-80
2022/08/26 10:56:48;;;;;;;;;;;;;;;20.80;100.00;-7365.09;5052524;28;19920;-79
2022/08/26 10:59:32;;;;;;;;;;;;;;;20.67;100.00;-6032.22;5052890;28;19928;-79
2022/08/26 11:02:09;;;;;;;;;;;;;;;20.59;100.00;-5699.13;5052567;28;19921;-79
2022/08/26 11:04:45;;;;;;;;;;;;;;;20.66;100.00;-7365.19;5052443;28;20348;-80
2022/08/26 11:07:31;;;;;;;;;;;;;;;20.85;100.00;-8364.78;5051822;28;20283;-75
2022/08/26 11:10:00;;;;;;;;;;;;;;;20.96;100.00;-4697.34;5052323;28;19924;-80
2022/08/26 11:12:37;;;;;;;;;;;;;;;21.24;100.00;-2025.31;5052351;28;19917;-79
2022/08/26 11:15:07;;;;;;;;;;;;;;;21.37;100.00;1651.81;5052193;28;19924;-80
2022/08/26 11:17:45;;;;;;;;;;;;;;;21.37;100.00;6000.66;5052375;28;19917;-80
2022/08/26 11:20:28;;;;;;;;;;;;;;;21.36;100.00;7004.72;5051828;28;19971;-80
2022/08/26 11:22:54;;;;;;;;;;;;;;;21.27;100.00;8341.78;5051980;28;19917;-78
2022/08/26 11:25:23;;;;;;;;;;;;;;;21.02;100.00;9005.03;5052192;28;19917;-80
2022/08/26 11:27:50;;;;;;;;;;;;;;;21.00;100.00;7665.59;5052397;28;19916;-80
2022/08/26 11:30:16;;;;;;;;;;;;;;;20.97;100.00;5992.09;5052841;28;20388;-78
2022/08/26 11:32:41;;;;;;;;;;;;;;;21.10;100.00;8672.25;5053305;28;19928;-80
2022/08/26 11:35:07;;;;;;;;;;;;;;;21.40;100.00;8679.97;5054322;28;19970;-76
2022/08/26 11:37:34;;;;;;;;;;;;;;;21.48;100.00;15388.16;5053476;28;19917;-78
2022/08/26 11:40:03;;;;;;;;;;;;;;;21.70;100.00;20770.97;5051296;28;20016;-74
2022/08/26 11:42:31;;;;;;;;;;;;;;;21.53;100.00;32880.84;5051182;28;19917;-76
2022/08/26 11:44:58;;;;;;;;;;;;;;;21.55;100.00;40981.22;5051860;28;20431;-78
2022/08/26 11:47:28;;;;;;;;;;;;;;;21.76;100.00;43364.16;5052424;28;19920;-75
2022/08/26 11:50:06;;;;;;;;;;;;;;;21.94;100.00;55573.59;5052906;28;19966;-77
2022/08/26 11:52:32;;;;;;;;;;;;;;;22.16;100.00;77377.59;5052395;28;19928;-78
2022/08/26 11:55:06;;;;;;;;;;;;;;;22.15;100.00;100648.03;5050452;28;20288;-79
2022/08/26 11:57:33;;;;;;;;;;;;;;;22.14;100.00;131309.53;5050814;28;20376;-77
2022/08/26 11:59:58;;;;;;;;;;;;;;;22.20;100.00;133744.88;5051027;28;19917;-76
2022/08/26 12:02:24;;;;;;;;;;;;;;;22.22;100.00;148307.09;5050420;28;19923;-77
2022/08/26 12:04:50;;;;;;;;;;;;;;;22.07;100.00;148268.63;5050130;28;19917;-78
2022/08/26 12:07:20;;;;;;;;;;;;;;;22.09;100.00;148273.75;5050395;28;19924;-76
2022/08/26 12:09:53;;;;;;;;;;;;;;;22.03;100.00;148259.66;5050020;28;20059;-76
2022/08/26 12:12:23;;;;;;;;;;;;;;;22.02;100.00;148257.06;5050752;28;19917;-77
2022/08/26 12:15:03;;;;;;;;;;;;;;;22.11;100.00;148277.59;5050532;28;19917;-79
2022/08/26 12:17:28;;;;;;;;;;;;;;;21.93;100.00;148232.72;5050223;28;19913;-78
2022/08/26 12:19:53;;;;;;;;;;;;;;;21.89;100.00;148223.72;5050242;28;19921;-79
2022/08/26 12:22:18;;;;;;;;;;;;;;;22.04;100.00;148262.19;5050137;28;20293;-79
2022/08/26 12:24:46;;;;;;;;;;;;;;;22.12;100.00;148281.44;5050083;28;19959;-77
2022/08/26 12:27:12;;;;;;;;;;;;;;;22.22;100.00;148307.09;5050675;28;20011;-78
2022/08/26 12:29:37;;;;;;;;;;;;;;;22.31;100.00;148327.66;5049911;28;20388;-78
2022/08/26 12:32:13;;;;;;;;;;;;;;;22.21;100.00;148303.25;5049740;28;19916;-81